sensor_id;sensor_type;location;lat;lon;timestamp;P1;durP1;ratioP1;P2;durP2;ratioP2
63016;SDS011;50274;45.640;11.756;2023-02-08T00:00:04;34.90;;;17.97;;
63016;SDS011;50274;45.640;11.756;2023-02-08T00:02:30;30.90;;;18.02;;
63016;SDS011;50274;45.640;11.756;2023-02-08T00:04:56;37.38;;;18.75;;
63016;SDS011;50274;45.640;11.756;2023-02-08T00:07:21;33.70;;;18.60;;
63016;SDS011;50274;45.640;11.756;2023-02-08T00:09:47;37.15;;;18.58;;
63016;SDS011;50274;45.640;11.756;2023-02-08T00:12:13;34.20;;;19.23;;
63016;SDS011;50274;45.640;11.756;2023-02-08T00:14:39;35.53;;;18.35;;
63016;SDS011;50274;45.640;11.756;2023-02-08T00:17:05;32.33;;;17.80;;
63016;SDS011;50274;45.640;11.756;2023-02-08T00:19:30;34.17;;;18.90;;
63016;SDS011;50274;45.640;11.756;2023-02-08T00:21:56;32.73;;;17.70;;
63016;SDS011;50274;45.640;11.756;2023-02-08T00:24:22;36.10;;;18.33;;
63016;SDS011;50274;45.640;11.756;2023-02-08T00:26:48;36.65;;;18.52;;
63016;SDS011;50274;45.640;11.756;2023-02-08T00:29:13;32.07;;;18.03;;
63016;SDS011;50274;45.640;11.756;2023-02-08T00:31:39;34.08;;;17.98;;
63016;SDS011;50274;45.640;11.756;2023-02-08T00:34:05;38.20;;;18.63;;
63016;SDS011;50274;45.640;11.756;2023-02-08T00:36:31;33.60;;;18.63;;
63016;SDS011;50274;45.640;11.756;2023-02-08T00:38:56;39.17;;;19.00;;
63016;SDS011;50274;45.640;11.756;2023-02-08T00:41:22;35.63;;;19.50;;
63016;SDS011;50274;45.640;11.756;2023-02-08T00:43:48;35.73;;;18.73;;
63016;SDS011;50274;45.640;11.756;2023-02-08T00:46:14;37.10;;;18.90;;
63016;SDS011;50274;45.640;11.756;2023-02-08T00:48:39;34.83;;;19.07;;
63016;SDS011;50274;45.640;11.756;2023-02-08T00:51:11;34.85;;;19.42;;
63016;SDS011;50274;45.640;11.756;2023-02-08T00:53:39;40.85;;;21.95;;
63016;SDS011;50274;45.640;11.756;2023-02-08T00:56:07;46.67;;;23.70;;
63016;SDS011;50274;45.640;11.756;2023-02-08T00:58:34;49.42;;;26.38;;
63016;SDS011;50274;45.640;11.756;2023-02-08T01:01:00;47.97;;;25.65;;
63016;SDS011;50274;45.640;11.756;2023-02-08T01:03:27;46.08;;;24.00;;
63016;SDS011;50274;45.640;11.756;2023-02-08T01:05:53;39.90;;;21.33;;
63016;SDS011;50274;45.640;11.756;2023-02-08T01:08:25;35.50;;;19.20;;
63016;SDS011;50274;45.640;11.756;2023-02-08T01:10:51;33.70;;;19.90;;
63016;SDS011;50274;45.640;11.756;2023-02-08T01:13:17;37.97;;;20.02;;
63016;SDS011;50274;45.640;11.756;2023-02-08T01:15:43;35.50;;;18.55;;
63016;SDS011;50274;45.640;11.756;2023-02-08T01:18:09;36.67;;;19.42;;
63016;SDS011;50274;45.640;11.756;2023-02-08T01:20:35;38.05;;;19.65;;
63016;SDS011;50274;45.640;11.756;2023-02-08T01:23:02;30.67;;;17.58;;
63016;SDS011;50274;45.640;11.756;2023-02-08T01:25:28;35.53;;;17.25;;
63016;SDS011;50274;45.640;11.756;2023-02-08T01:27:54;35.08;;;18.25;;
63016;SDS011;50274;45.640;11.756;2023-02-08T01:30:21;35.65;;;17.73;;
63016;SDS011;50274;45.640;11.756;2023-02-08T01:32:47;30.00;;;16.10;;
63016;SDS011;50274;45.640;11.756;2023-02-08T01:35:13;31.80;;;17.70;;
63016;SDS011;50274;45.640;11.756;2023-02-08T01:37:39;36.72;;;17.92;;
63016;SDS011;50274;45.640;11.756;2023-02-08T01:40:05;32.47;;;16.83;;
63016;SDS011;50274;45.640;11.756;2023-02-08T01:42:31;33.97;;;16.65;;
63016;SDS011;50274;45.640;11.756;2023-02-08T01:47:49;31.43;;;15.63;;
63016;SDS011;50274;45.640;11.756;2023-02-08T01:50:20;31.30;;;13.90;;
63016;SDS011;50274;45.640;11.756;2023-02-08T01:52:48;26.13;;;13.27;;
63016;SDS011;50274;45.640;11.756;2023-02-08T01:55:17;25.00;;;13.48;;
63016;SDS011;50274;45.640;11.756;2023-02-08T01:57:47;24.65;;;12.90;;
63016;SDS011;50274;45.640;11.756;2023-02-08T02:00:18;25.30;;;12.63;;
63016;SDS011;50274;45.640;11.756;2023-02-08T02:02:48;23.30;;;12.15;;
63016;SDS011;50274;45.640;11.756;2023-02-08T02:05:18;23.95;;;12.60;;
63016;SDS011;50274;45.640;11.756;2023-02-08T02:07:46;21.23;;;11.95;;
63016;SDS011;50274;45.640;11.756;2023-02-08T02:10:15;21.25;;;11.20;;
63016;SDS011;50274;45.640;11.756;2023-02-08T02:12:46;23.40;;;12.27;;
63016;SDS011;50274;45.640;11.756;2023-02-08T02:15:12;23.92;;;12.27;;
63016;SDS011;50274;45.640;11.756;2023-02-08T02:17:38;20.85;;;11.88;;
63016;SDS011;50274;45.640;11.756;2023-02-08T02:20:51;24.00;;;12.45;;
63016;SDS011;50274;45.640;11.756;2023-02-08T02:23:24;21.60;;;11.33;;
63016;SDS011;50274;45.640;11.756;2023-02-08T02:34:21;23.33;;;11.75;;
63016;SDS011;50274;45.640;11.756;2023-02-08T02:37:05;21.67;;;10.50;;
63016;SDS011;50274;45.640;11.756;2023-02-08T02:42:42;21.75;;;11.85;;
63016;SDS011;50274;45.640;11.756;2023-02-08T02:48:21;20.42;;;10.07;;
63016;SDS011;50274;45.640;11.756;2023-02-08T02:51:11;21.90;;;9.77;;
63016;SDS011;50274;45.640;11.756;2023-02-08T02:56:36;20.00;;;9.68;;
63016;SDS011;50274;45.640;11.756;2023-02-08T02:59:09;22.10;;;10.00;;
63016;SDS011;50274;45.640;11.756;2023-02-08T03:01:38;18.98;;;9.15;;
63016;SDS011;50274;45.640;11.756;2023-02-08T03:04:12;19.40;;;9.33;;
63016;SDS011;50274;45.640;11.756;2023-02-08T03:06:49;20.38;;;9.77;;
63016;SDS011;50274;45.640;11.756;2023-02-08T03:09:29;20.55;;;10.40;;
63016;SDS011;50274;45.640;11.756;2023-02-08T03:12:00;18.73;;;9.40;;
63016;SDS011;50274;45.640;11.756;2023-02-08T03:14:40;20.20;;;10.10;;
63016;SDS011;50274;45.640;11.756;2023-02-08T03:17:24;21.33;;;10.53;;
63016;SDS011;50274;45.640;11.756;2023-02-08T03:20:13;21.65;;;10.48;;
63016;SDS011;50274;45.640;11.756;2023-02-08T03:22:56;21.17;;;10.20;;
63016;SDS011;50274;45.640;11.756;2023-02-08T03:25:32;17.65;;;8.95;;
63016;SDS011;50274;45.640;11.756;2023-02-08T03:28:21;19.35;;;9.57;;
63016;SDS011;50274;45.640;11.756;2023-02-08T03:31:02;18.17;;;8.57;;
63016;SDS011;50274;45.640;11.756;2023-02-08T03:34:00;22.42;;;9.68;;
63016;SDS011;50274;45.640;11.756;2023-02-08T03:36:58;23.92;;;10.52;;
63016;SDS011;50274;45.640;11.756;2023-02-08T03:39:30;19.73;;;9.70;;
63016;SDS011;50274;45.640;11.756;2023-02-08T03:41:59;17.90;;;9.35;;
63016;SDS011;50274;45.640;11.756;2023-02-08T03:44:34;15.50;;;7.93;;
63016;SDS011;50274;45.640;11.756;2023-02-08T03:47:22;19.85;;;9.18;;
63016;SDS011;50274;45.640;11.756;2023-02-08T03:49:58;14.63;;;7.82;;
63016;SDS011;50274;45.640;11.756;2023-02-08T03:52:29;17.17;;;8.25;;
63016;SDS011;50274;45.640;11.756;2023-02-08T03:55:08;19.35;;;8.77;;
63016;SDS011;50274;45.640;11.756;2023-02-08T03:57:39;17.23;;;8.77;;
63016;SDS011;50274;45.640;11.756;2023-02-08T04:00:09;18.17;;;8.60;;
63016;SDS011;50274;45.640;11.756;2023-02-08T04:02:40;21.00;;;9.68;;
63016;SDS011;50274;45.640;11.756;2023-02-08T04:05:13;22.85;;;11.02;;
63016;SDS011;50274;45.640;11.756;2023-02-08T04:07:39;30.67;;;14.25;;
63016;SDS011;50274;45.640;11.756;2023-02-08T04:10:04;32.30;;;14.80;;
63016;SDS011;50274;45.640;11.756;2023-02-08T04:12:30;27.35;;;12.80;;
63016;SDS011;50274;45.640;11.756;2023-02-08T04:14:56;31.13;;;12.90;;
63016;SDS011;50274;45.640;11.756;2023-02-08T04:17:22;29.60;;;11.27;;
63016;SDS011;50274;45.640;11.756;2023-02-08T04:19:48;24.67;;;10.73;;
63016;SDS011;50274;45.640;11.756;2023-02-08T04:22:14;25.23;;;11.05;;
63016;SDS011;50274;45.640;11.756;2023-02-08T04:24:39;23.20;;;10.18;;
63016;SDS011;50274;45.640;11.756;2023-02-08T04:27:05;22.57;;;10.40;;
63016;SDS011;50274;45.640;11.756;2023-02-08T04:29:31;22.42;;;9.75;;
63016;SDS011;50274;45.640;11.756;2023-02-08T04:31:57;22.77;;;9.88;;
63016;SDS011;50274;45.640;11.756;2023-02-08T04:34:24;18.67;;;9.00;;
63016;SDS011;50274;45.640;11.756;2023-02-08T04:36:49;19.85;;;8.68;;
63016;SDS011;50274;45.640;11.756;2023-02-08T04:39:15;19.52;;;9.27;;
63016;SDS011;50274;45.640;11.756;2023-02-08T04:41:41;22.07;;;9.07;;
63016;SDS011;50274;45.640;11.756;2023-02-08T04:44:07;19.58;;;8.90;;
63016;SDS011;50274;45.640;11.756;2023-02-08T04:46:33;20.67;;;8.43;;
63016;SDS011;50274;45.640;11.756;2023-02-08T04:48:58;18.88;;;8.20;;
63016;SDS011;50274;45.640;11.756;2023-02-08T04:51:24;15.03;;;7.57;;
63016;SDS011;50274;45.640;11.756;2023-02-08T04:53:50;14.07;;;7.68;;
63016;SDS011;50274;45.640;11.756;2023-02-08T04:56:16;18.13;;;8.55;;
63016;SDS011;50274;45.640;11.756;2023-02-08T04:58:42;15.55;;;7.78;;
63016;SDS011;50274;45.640;11.756;2023-02-08T05:01:08;15.82;;;7.22;;
63016;SDS011;50274;45.640;11.756;2023-02-08T05:03:36;17.98;;;8.57;;
63016;SDS011;50274;45.640;11.756;2023-02-08T05:06:02;16.03;;;7.27;;
63016;SDS011;50274;45.640;11.756;2023-02-08T05:08:28;15.05;;;6.88;;
63016;SDS011;50274;45.640;11.756;2023-02-08T05:10:54;16.98;;;8.15;;
63016;SDS011;50274;45.640;11.756;2023-02-08T05:13:19;17.93;;;8.17;;
63016;SDS011;50274;45.640;11.756;2023-02-08T05:15:45;13.18;;;6.53;;
63016;SDS011;50274;45.640;11.756;2023-02-08T05:18:11;15.90;;;6.43;;
63016;SDS011;50274;45.640;11.756;2023-02-08T05:20:37;13.18;;;6.63;;
63016;SDS011;50274;45.640;11.756;2023-02-08T05:23:02;13.27;;;6.70;;
63016;SDS011;50274;45.640;11.756;2023-02-08T05:25:30;17.45;;;7.60;;
63016;SDS011;50274;45.640;11.756;2023-02-08T05:27:55;18.73;;;8.40;;
63016;SDS011;50274;45.640;11.756;2023-02-08T05:30:22;14.55;;;7.18;;
63016;SDS011;50274;45.640;11.756;2023-02-08T05:32:48;14.43;;;6.73;;
63016;SDS011;50274;45.640;11.756;2023-02-08T05:35:14;21.88;;;8.98;;
63016;SDS011;50274;45.640;11.756;2023-02-08T05:37:40;18.93;;;8.60;;
63016;SDS011;50274;45.640;11.756;2023-02-08T05:40:06;20.20;;;8.98;;
63016;SDS011;50274;45.640;11.756;2023-02-08T05:42:32;20.15;;;9.38;;
63016;SDS011;50274;45.640;11.756;2023-02-08T05:44:58;19.57;;;9.10;;
63016;SDS011;50274;45.640;11.756;2023-02-08T05:47:23;17.73;;;7.95;;
63016;SDS011;50274;45.640;11.756;2023-02-08T05:49:49;19.50;;;7.73;;
63016;SDS011;50274;45.640;11.756;2023-02-08T05:52:15;16.17;;;7.28;;
63016;SDS011;50274;45.640;11.756;2023-02-08T05:54:41;16.73;;;7.55;;
63016;SDS011;50274;45.640;11.756;2023-02-08T05:57:07;15.83;;;7.47;;
63016;SDS011;50274;45.640;11.756;2023-02-08T05:59:33;16.23;;;7.05;;
63016;SDS011;50274;45.640;11.756;2023-02-08T06:01:59;17.80;;;7.40;;
63016;SDS011;50274;45.640;11.756;2023-02-08T06:04:24;16.33;;;7.40;;
63016;SDS011;50274;45.640;11.756;2023-02-08T06:06:50;13.52;;;6.05;;
63016;SDS011;50274;45.640;11.756;2023-02-08T06:09:16;15.70;;;7.20;;
63016;SDS011;50274;45.640;11.756;2023-02-08T06:11:42;16.73;;;6.82;;
63016;SDS011;50274;45.640;11.756;2023-02-08T06:14:08;14.13;;;6.85;;
63016;SDS011;50274;45.640;11.756;2023-02-08T06:16:34;17.13;;;7.87;;
63016;SDS011;50274;45.640;11.756;2023-02-08T06:19:00;18.05;;;7.35;;
63016;SDS011;50274;45.640;11.756;2023-02-08T06:21:26;18.17;;;8.03;;
63016;SDS011;50274;45.640;11.756;2023-02-08T06:23:52;12.98;;;6.68;;
63016;SDS011;50274;45.640;11.756;2023-02-08T06:26:18;18.65;;;7.65;;
63016;SDS011;50274;45.640;11.756;2023-02-08T06:28:44;15.02;;;7.35;;
63016;SDS011;50274;45.640;11.756;2023-02-08T06:31:09;18.10;;;7.20;;
63016;SDS011;50274;45.640;11.756;2023-02-08T06:33:35;15.27;;;6.75;;
63016;SDS011;50274;45.640;11.756;2023-02-08T06:36:01;17.27;;;7.47;;
63016;SDS011;50274;45.640;11.756;2023-02-08T06:38:27;19.08;;;8.35;;
63016;SDS011;50274;45.640;11.756;2023-02-08T06:40:53;18.83;;;9.23;;
63016;SDS011;50274;45.640;11.756;2023-02-08T06:43:19;19.67;;;8.77;;
63016;SDS011;50274;45.640;11.756;2023-02-08T06:45:45;17.30;;;8.05;;
63016;SDS011;50274;45.640;11.756;2023-02-08T06:48:11;17.80;;;7.95;;
63016;SDS011;50274;45.640;11.756;2023-02-08T06:50:37;17.40;;;8.40;;
63016;SDS011;50274;45.640;11.756;2023-02-08T06:53:03;21.90;;;9.15;;
63016;SDS011;50274;45.640;11.756;2023-02-08T06:55:29;18.05;;;8.38;;
63016;SDS011;50274;45.640;11.756;2023-02-08T06:57:55;25.15;;;9.93;;
63016;SDS011;50274;45.640;11.756;2023-02-08T07:00:21;18.77;;;8.20;;
63016;SDS011;50274;45.640;11.756;2023-02-08T07:02:47;19.45;;;8.82;;
63016;SDS011;50274;45.640;11.756;2023-02-08T07:05:13;21.53;;;9.47;;
63016;SDS011;50274;45.640;11.756;2023-02-08T07:07:39;17.63;;;8.15;;
63016;SDS011;50274;45.640;11.756;2023-02-08T07:10:05;16.23;;;7.32;;
63016;SDS011;50274;45.640;11.756;2023-02-08T07:12:32;17.92;;;8.57;;
63016;SDS011;50274;45.640;11.756;2023-02-08T07:14:59;19.13;;;8.55;;
63016;SDS011;50274;45.640;11.756;2023-02-08T07:17:25;16.23;;;7.43;;
63016;SDS011;50274;45.640;11.756;2023-02-08T07:19:50;19.23;;;9.55;;
63016;SDS011;50274;45.640;11.756;2023-02-08T07:22:16;21.77;;;8.70;;
63016;SDS011;50274;45.640;11.756;2023-02-08T07:24:42;18.10;;;8.10;;
63016;SDS011;50274;45.640;11.756;2023-02-08T07:27:08;17.00;;;7.60;;
63016;SDS011;50274;45.640;11.756;2023-02-08T07:29:35;16.67;;;7.53;;
63016;SDS011;50274;45.640;11.756;2023-02-08T07:32:02;27.52;;;12.18;;
63016;SDS011;50274;45.640;11.756;2023-02-08T07:34:29;22.02;;;10.27;;
63016;SDS011;50274;45.640;11.756;2023-02-08T07:36:57;28.30;;;11.93;;
63016;SDS011;50274;45.640;11.756;2023-02-08T07:39:23;27.23;;;12.90;;
63016;SDS011;50274;45.640;11.756;2023-02-08T07:41:49;18.98;;;9.52;;
63016;SDS011;50274;45.640;11.756;2023-02-08T07:44:15;20.20;;;10.02;;
63016;SDS011;50274;45.640;11.756;2023-02-08T07:46:41;24.13;;;11.13;;
63016;SDS011;50274;45.640;11.756;2023-02-08T07:49:07;22.30;;;11.57;;
63016;SDS011;50274;45.640;11.756;2023-02-08T07:51:33;24.15;;;11.50;;
63016;SDS011;50274;45.640;11.756;2023-02-08T07:53:59;27.08;;;12.85;;
63016;SDS011;50274;45.640;11.756;2023-02-08T07:56:26;25.87;;;12.00;;
63016;SDS011;50274;45.640;11.756;2023-02-08T07:58:52;31.52;;;13.48;;
63016;SDS011;50274;45.640;11.756;2023-02-08T08:01:17;25.58;;;12.55;;
63016;SDS011;50274;45.640;11.756;2023-02-08T08:03:43;30.60;;;13.73;;
63016;SDS011;50274;45.640;11.756;2023-02-08T08:06:09;25.33;;;12.95;;
63016;SDS011;50274;45.640;11.756;2023-02-08T08:08:35;27.07;;;13.00;;
63016;SDS011;50274;45.640;11.756;2023-02-08T08:11:00;25.80;;;11.93;;
63016;SDS011;50274;45.640;11.756;2023-02-08T08:13:26;24.33;;;12.53;;
63016;SDS011;50274;45.640;11.756;2023-02-08T08:15:52;23.70;;;12.40;;
63016;SDS011;50274;45.640;11.756;2023-02-08T08:18:18;26.23;;;12.65;;
63016;SDS011;50274;45.640;11.756;2023-02-08T08:20:44;23.60;;;11.88;;
63016;SDS011;50274;45.640;11.756;2023-02-08T08:23:09;29.60;;;12.93;;
63016;SDS011;50274;45.640;11.756;2023-02-08T08:25:36;25.00;;;11.93;;
63016;SDS011;50274;45.640;11.756;2023-02-08T08:28:02;25.63;;;12.48;;
63016;SDS011;50274;45.640;11.756;2023-02-08T08:30:29;25.95;;;12.88;;
63016;SDS011;50274;45.640;11.756;2023-02-08T08:32:55;28.35;;;13.40;;
63016;SDS011;50274;45.640;11.756;2023-02-08T08:35:20;24.38;;;12.13;;
63016;SDS011;50274;45.640;11.756;2023-02-08T08:37:46;24.23;;;12.03;;
63016;SDS011;50274;45.640;11.756;2023-02-08T08:40:12;25.88;;;12.35;;
63016;SDS011;50274;45.640;11.756;2023-02-08T08:42:38;30.30;;;13.00;;
63016;SDS011;50274;45.640;11.756;2023-02-08T08:45:04;28.00;;;12.75;;
63016;SDS011;50274;45.640;11.756;2023-02-08T08:47:31;24.73;;;12.43;;
63016;SDS011;50274;45.640;11.756;2023-02-08T08:49:57;24.53;;;11.67;;
63016;SDS011;50274;45.640;11.756;2023-02-08T08:52:23;26.00;;;12.82;;
63016;SDS011;50274;45.640;11.756;2023-02-08T08:54:49;25.13;;;12.10;;
63016;SDS011;50274;45.640;11.756;2023-02-08T08:57:15;27.63;;;13.40;;
63016;SDS011;50274;45.640;11.756;2023-02-08T08:59:41;24.15;;;11.82;;
63016;SDS011;50274;45.640;11.756;2023-02-08T09:02:08;26.67;;;12.47;;
63016;SDS011;50274;45.640;11.756;2023-02-08T09:04:39;25.75;;;12.75;;
63016;SDS011;50274;45.640;11.756;2023-02-08T09:07:05;29.25;;;13.77;;
63016;SDS011;50274;45.640;11.756;2023-02-08T09:09:33;24.27;;;12.20;;
63016;SDS011;50274;45.640;11.756;2023-02-08T09:11:59;21.58;;;12.00;;
63016;SDS011;50274;45.640;11.756;2023-02-08T09:14:25;24.50;;;12.77;;
63016;SDS011;50274;45.640;11.756;2023-02-08T09:16:51;25.67;;;12.88;;
63016;SDS011;50274;45.640;11.756;2023-02-08T09:19:17;28.23;;;14.15;;
63016;SDS011;50274;45.640;11.756;2023-02-08T09:21:43;25.95;;;13.35;;
63016;SDS011;50274;45.640;11.756;2023-02-08T09:24:09;27.60;;;13.00;;
63016;SDS011;50274;45.640;11.756;2023-02-08T09:26:35;24.02;;;13.18;;
63016;SDS011;50274;45.640;11.756;2023-02-08T09:29:02;31.05;;;13.32;;
63016;SDS011;50274;45.640;11.756;2023-02-08T09:31:29;22.80;;;11.90;;
63016;SDS011;50274;45.640;11.756;2023-02-08T09:33:58;24.90;;;12.93;;
63016;SDS011;50274;45.640;11.756;2023-02-08T09:36:27;24.73;;;12.43;;
63016;SDS011;50274;45.640;11.756;2023-02-08T09:38:56;25.55;;;12.70;;
63016;SDS011;50274;45.640;11.756;2023-02-08T09:46:44;24.38;;;12.60;;
63016;SDS011;50274;45.640;11.756;2023-02-08T09:49:23;21.50;;;11.57;;
63016;SDS011;50274;45.640;11.756;2023-02-08T09:51:55;25.25;;;12.55;;
63016;SDS011;50274;45.640;11.756;2023-02-08T09:54:25;21.98;;;11.70;;
63016;SDS011;50274;45.640;11.756;2023-02-08T09:56:55;25.98;;;11.75;;
63016;SDS011;50274;45.640;11.756;2023-02-08T09:59:24;24.20;;;12.18;;
63016;SDS011;50274;45.640;11.756;2023-02-08T10:04:56;22.40;;;10.60;;
63016;SDS011;50274;45.640;11.756;2023-02-08T10:07:28;23.08;;;11.45;;
63016;SDS011;50274;45.640;11.756;2023-02-08T10:09:55;23.90;;;10.63;;
63016;SDS011;50274;45.640;11.756;2023-02-08T10:32:01;23.33;;;11.10;;
63016;SDS011;50274;45.640;11.756;2023-02-08T10:37:13;21.02;;;11.15;;
63016;SDS011;50274;45.640;11.756;2023-02-08T10:39:59;26.80;;;12.57;;
63016;SDS011;50274;45.640;11.756;2023-02-08T10:42:38;21.63;;;11.00;;
63016;SDS011;50274;45.640;11.756;2023-02-08T10:48:00;21.27;;;10.40;;
63016;SDS011;50274;45.640;11.756;2023-02-08T10:50:39;23.17;;;10.30;;
63016;SDS011;50274;45.640;11.756;2023-02-08T10:53:17;19.30;;;10.45;;
63016;SDS011;50274;45.640;11.756;2023-02-08T10:55:45;20.53;;;10.00;;
63016;SDS011;50274;45.640;11.756;2023-02-08T10:58:13;20.45;;;10.18;;
63016;SDS011;50274;45.640;11.756;2023-02-08T11:00:44;22.45;;;11.60;;
63016;SDS011;50274;45.640;11.756;2023-02-08T11:05:40;20.67;;;11.10;;
63016;SDS011;50274;45.640;11.756;2023-02-08T11:08:08;21.07;;;10.63;;
63016;SDS011;50274;45.640;11.756;2023-02-08T11:10:42;19.48;;;10.93;;
63016;SDS011;50274;45.640;11.756;2023-02-08T11:13:30;22.00;;;11.05;;
63016;SDS011;50274;45.640;11.756;2023-02-08T11:15:57;22.23;;;11.45;;
63016;SDS011;50274;45.640;11.756;2023-02-08T11:18:27;21.00;;;11.65;;
63016;SDS011;50274;45.640;11.756;2023-02-08T11:20:57;23.33;;;11.33;;
63016;SDS011;50274;45.640;11.756;2023-02-08T11:23:29;23.30;;;11.40;;
63016;SDS011;50274;45.640;11.756;2023-02-08T11:28:58;23.25;;;11.30;;
63016;SDS011;50274;45.640;11.756;2023-02-08T11:31:30;23.20;;;10.90;;
63016;SDS011;50274;45.640;11.756;2023-02-08T11:34:00;20.83;;;11.37;;
63016;SDS011;50274;45.640;11.756;2023-02-08T11:36:28;19.55;;;10.80;;
63016;SDS011;50274;45.640;11.756;2023-02-08T11:38:56;20.90;;;11.02;;
63016;SDS011;50274;45.640;11.756;2023-02-08T11:41:24;20.15;;;10.65;;
63016;SDS011;50274;45.640;11.756;2023-02-08T11:43:55;22.05;;;11.57;;
63016;SDS011;50274;45.640;11.756;2023-02-08T11:46:27;23.03;;;11.90;;
63016;SDS011;50274;45.640;11.756;2023-02-08T11:48:56;19.42;;;10.60;;
63016;SDS011;50274;45.640;11.756;2023-02-08T11:51:24;20.85;;;11.55;;
63016;SDS011;50274;45.640;11.756;2023-02-08T11:54:30;18.48;;;10.38;;
63016;SDS011;50274;45.640;11.756;2023-02-08T11:57:10;20.90;;;10.82;;
63016;SDS011;50274;45.640;11.756;2023-02-08T11:59:36;20.73;;;10.43;;
63016;SDS011;50274;45.640;11.756;2023-02-08T12:02:48;20.30;;;11.07;;
63016;SDS011;50274;45.640;11.756;2023-02-08T12:04:48;20.55;;;10.25;;
63016;SDS011;50274;45.640;11.756;2023-02-08T12:21:19;18.48;;;10.30;;
63016;SDS011;50274;45.640;11.756;2023-02-08T12:23:54;22.92;;;10.82;;
63016;SDS011;50274;45.640;11.756;2023-02-08T12:26:36;21.57;;;11.27;;
63016;SDS011;50274;45.640;11.756;2023-02-08T12:29:29;20.38;;;10.55;;
63016;SDS011;50274;45.640;11.756;2023-02-08T12:32:15;20.25;;;10.88;;
63016;SDS011;50274;45.640;11.756;2023-02-08T12:35:09;21.02;;;11.85;;
63016;SDS011;50274;45.640;11.756;2023-02-08T12:37:44;21.23;;;11.30;;
63016;SDS011;50274;45.640;11.756;2023-02-08T12:54:16;19.00;;;10.60;;
63016;SDS011;50274;45.640;11.756;2023-02-08T12:56:44;19.17;;;10.82;;
63016;SDS011;50274;45.640;11.756;2023-02-08T12:59:20;21.95;;;9.98;;
63016;SDS011;50274;45.640;11.756;2023-02-08T13:01:54;20.85;;;9.65;;
63016;SDS011;50274;45.640;11.756;2023-02-08T13:04:29;24.52;;;10.93;;
63016;SDS011;50274;45.640;11.756;2023-02-08T13:07:18;19.43;;;9.77;;
63016;SDS011;50274;45.640;11.756;2023-02-08T13:09:51;18.85;;;10.55;;
63016;SDS011;50274;45.640;11.756;2023-02-08T13:12:43;20.55;;;9.80;;
63016;SDS011;50274;45.640;11.756;2023-02-08T13:15:20;18.50;;;9.80;;
63016;SDS011;50274;45.640;11.756;2023-02-08T13:17:54;21.08;;;10.48;;
63016;SDS011;50274;45.640;11.756;2023-02-08T13:23:06;18.02;;;9.98;;
63016;SDS011;50274;45.640;11.756;2023-02-08T13:25:40;18.02;;;10.15;;
63016;SDS011;50274;45.640;11.756;2023-02-08T13:28:12;18.60;;;9.57;;
63016;SDS011;50274;45.640;11.756;2023-02-08T13:30:46;20.83;;;9.40;;
63016;SDS011;50274;45.640;11.756;2023-02-08T13:33:30;16.70;;;9.63;;
63016;SDS011;50274;45.640;11.756;2023-02-08T13:36:04;19.45;;;10.07;;
63016;SDS011;50274;45.640;11.756;2023-02-08T13:38:36;20.13;;;9.52;;
63016;SDS011;50274;45.640;11.756;2023-02-08T13:41:13;18.45;;;9.98;;
63016;SDS011;50274;45.640;11.756;2023-02-08T13:46:18;16.50;;;8.50;;
63016;SDS011;50274;45.640;11.756;2023-02-08T13:48:55;19.33;;;9.85;;
63016;SDS011;50274;45.640;11.756;2023-02-08T13:59:24;16.90;;;8.93;;
63016;SDS011;50274;45.640;11.756;2023-02-08T14:04:37;18.60;;;9.82;;
63016;SDS011;50274;45.640;11.756;2023-02-08T14:07:05;20.07;;;10.77;;
63016;SDS011;50274;45.640;11.756;2023-02-08T14:12:20;18.67;;;10.45;;
63016;SDS011;50274;45.640;11.756;2023-02-08T14:17:40;19.60;;;9.67;;
63016;SDS011;50274;45.640;11.756;2023-02-08T14:20:14;16.27;;;8.88;;
63016;SDS011;50274;45.640;11.756;2023-02-08T14:22:49;19.02;;;9.13;;
63016;SDS011;50274;45.640;11.756;2023-02-08T14:25:18;19.38;;;9.98;;
63016;SDS011;50274;45.640;11.756;2023-02-08T14:27:56;19.35;;;9.98;;
63016;SDS011;50274;45.640;11.756;2023-02-08T14:30:36;19.97;;;9.40;;
63016;SDS011;50274;45.640;11.756;2023-02-08T14:35:32;18.42;;;9.90;;
63016;SDS011;50274;45.640;11.756;2023-02-08T14:45:46;18.17;;;8.68;;
63016;SDS011;50274;45.640;11.756;2023-02-08T14:48:18;15.40;;;7.85;;
63016;SDS011;50274;45.640;11.756;2023-02-08T14:51:14;16.20;;;9.20;;
63016;SDS011;50274;45.640;11.756;2023-02-08T14:54:01;20.70;;;9.55;;
63016;SDS011;50274;45.640;11.756;2023-02-08T14:56:44;19.87;;;10.37;;
63016;SDS011;50274;45.640;11.756;2023-02-08T14:59:25;18.95;;;9.63;;
63016;SDS011;50274;45.640;11.756;2023-02-08T15:01:58;19.40;;;9.90;;
63016;SDS011;50274;45.640;11.756;2023-02-08T15:04:26;20.80;;;10.38;;
63016;SDS011;50274;45.640;11.756;2023-02-08T15:09:50;19.00;;;9.77;;
63016;SDS011;50274;45.640;11.756;2023-02-08T15:12:24;17.85;;;9.45;;
63016;SDS011;50274;45.640;11.756;2023-02-08T15:14:53;19.63;;;9.98;;
63016;SDS011;50274;45.640;11.756;2023-02-08T15:17:34;20.55;;;9.48;;
63016;SDS011;50274;45.640;11.756;2023-02-08T15:20:06;16.70;;;9.10;;
63016;SDS011;50274;45.640;11.756;2023-02-08T15:22:41;17.10;;;9.00;;
63016;SDS011;50274;45.640;11.756;2023-02-08T15:27:47;16.42;;;9.05;;
63016;SDS011;50274;45.640;11.756;2023-02-08T15:30:21;15.30;;;7.70;;
63016;SDS011;50274;45.640;11.756;2023-02-08T15:32:48;12.23;;;6.60;;
63016;SDS011;50274;45.640;11.756;2023-02-08T15:35:14;14.90;;;7.20;;
63016;SDS011;50274;45.640;11.756;2023-02-08T15:37:44;13.13;;;6.78;;
63016;SDS011;50274;45.640;11.756;2023-02-08T15:40:31;13.98;;;6.80;;
63016;SDS011;50274;45.640;11.756;2023-02-08T15:45:33;15.87;;;8.17;;
63016;SDS011;50274;45.640;11.756;2023-02-08T15:47:59;15.13;;;7.25;;
63016;SDS011;50274;45.640;11.756;2023-02-08T15:50:26;15.90;;;7.22;;
63016;SDS011;50274;45.640;11.756;2023-02-08T15:52:58;13.40;;;6.00;;
63016;SDS011;50274;45.640;11.756;2023-02-08T15:55:27;13.70;;;6.40;;
63016;SDS011;50274;45.640;11.756;2023-02-08T15:57:58;14.10;;;7.10;;
63016;SDS011;50274;45.640;11.756;2023-02-08T16:00:29;14.20;;;7.07;;
63016;SDS011;50274;45.640;11.756;2023-02-08T16:02:59;13.60;;;6.32;;
63016;SDS011;50274;45.640;11.756;2023-02-08T16:05:31;12.98;;;6.85;;
63016;SDS011;50274;45.640;11.756;2023-02-08T16:07:58;12.82;;;6.95;;
63016;SDS011;50274;45.640;11.756;2023-02-08T16:10:29;13.77;;;6.43;;
63016;SDS011;50274;45.640;11.756;2023-02-08T16:13:13;14.50;;;6.78;;
63016;SDS011;50274;45.640;11.756;2023-02-08T16:18:47;14.60;;;6.53;;
63016;SDS011;50274;45.640;11.756;2023-02-08T16:21:33;13.88;;;6.50;;
63016;SDS011;50274;45.640;11.756;2023-02-08T16:26:39;13.98;;;6.55;;
63016;SDS011;50274;45.640;11.756;2023-02-08T16:29:16;14.52;;;6.75;;
63016;SDS011;50274;45.640;11.756;2023-02-08T16:32:02;14.18;;;6.03;;
63016;SDS011;50274;45.640;11.756;2023-02-08T16:34:47;14.85;;;6.93;;
63016;SDS011;50274;45.640;11.756;2023-02-08T16:42:39;13.65;;;7.35;;
63016;SDS011;50274;45.640;11.756;2023-02-08T16:50:04;13.13;;;6.55;;
63016;SDS011;50274;45.640;11.756;2023-02-08T16:52:31;16.73;;;7.47;;